sensor_id;sensor_type;location;lat;lon;timestamp;P1;durP1;ratioP1;P2;durP2;ratioP2
68608;SDS011;55581;46.718;7.690;2023-07-02T00:00:21;4.70;;;2.03;;
68608;SDS011;55581;46.718;7.690;2023-07-02T00:02:47;4.00;;;1.37;;
68608;SDS011;55581;46.718;7.690;2023-07-02T00:05:12;4.43;;;2.17;;
68608;SDS011;55581;46.718;7.690;2023-07-02T00:07:39;3.67;;;1.58;;
68608;SDS011;55581;46.718;7.690;2023-07-02T00:10:04;4.27;;;1.83;;
68608;SDS011;55581;46.718;7.690;2023-07-02T00:12:30;5.70;;;2.37;;
68608;SDS011;55581;46.718;7.690;2023-07-02T00:14:58;4.97;;;1.80;;
68608;SDS011;55581;46.718;7.690;2023-07-02T00:17:26;3.90;;;1.80;;
68608;SDS011;55581;46.718;7.690;2023-07-02T00:19:51;4.18;;;1.80;;
68608;SDS011;55581;46.718;7.690;2023-07-02T00:22:17;4.70;;;1.80;;
68608;SDS011;55581;46.718;7.690;2023-07-02T00:24:42;3.65;;;1.67;;
68608;SDS011;55581;46.718;7.690;2023-07-02T00:27:10;4.30;;;1.63;;
68608;SDS011;55581;46.718;7.690;2023-07-02T00:29:35;3.83;;;1.63;;
68608;SDS011;55581;46.718;7.690;2023-07-02T00:32:00;3.80;;;1.90;;
68608;SDS011;55581;46.718;7.690;2023-07-02T00:34:26;3.83;;;1.70;;
68608;SDS011;55581;46.718;7.690;2023-07-02T00:36:51;5.07;;;1.90;;
68608;SDS011;55581;46.718;7.690;2023-07-02T00:39:17;4.75;;;1.73;;
68608;SDS011;55581;46.718;7.690;2023-07-02T00:41:43;5.50;;;1.73;;
68608;SDS011;55581;46.718;7.690;2023-07-02T00:44:11;4.30;;;1.60;;
68608;SDS011;55581;46.718;7.690;2023-07-02T00:46:40;4.38;;;1.80;;
68608;SDS011;55581;46.718;7.690;2023-07-02T00:49:05;4.28;;;1.70;;
68608;SDS011;55581;46.718;7.690;2023-07-02T00:51:32;6.30;;;2.17;;
68608;SDS011;55581;46.718;7.690;2023-07-02T00:53:58;5.28;;;2.03;;
68608;SDS011;55581;46.718;7.690;2023-07-02T00:56:24;4.13;;;1.87;;
68608;SDS011;55581;46.718;7.690;2023-07-02T00:58:54;4.20;;;1.80;;
68608;SDS011;55581;46.718;7.690;2023-07-02T01:01:23;4.72;;;2.28;;
68608;SDS011;55581;46.718;7.690;2023-07-02T01:06:19;4.10;;;1.70;;
68608;SDS011;55581;46.718;7.690;2023-07-02T01:08:50;4.57;;;2.20;;
68608;SDS011;55581;46.718;7.690;2023-07-02T01:11:26;4.47;;;2.00;;
68608;SDS011;55581;46.718;7.690;2023-07-02T01:13:55;5.10;;;2.25;;
68608;SDS011;55581;46.718;7.690;2023-07-02T01:16:28;5.28;;;1.80;;
68608;SDS011;55581;46.718;7.690;2023-07-02T01:18:57;6.60;;;2.10;;
68608;SDS011;55581;46.718;7.690;2023-07-02T01:21:28;5.27;;;2.10;;
68608;SDS011;55581;46.718;7.690;2023-07-02T01:23:56;5.07;;;1.65;;
68608;SDS011;55581;46.718;7.690;2023-07-02T01:26:23;4.18;;;1.85;;
68608;SDS011;55581;46.718;7.690;2023-07-02T01:28:49;4.80;;;2.10;;
68608;SDS011;55581;46.718;7.690;2023-07-02T01:31:15;4.57;;;1.70;;
68608;SDS011;55581;46.718;7.690;2023-07-02T01:33:41;4.27;;;2.10;;
68608;SDS011;55581;46.718;7.690;2023-07-02T01:36:07;3.92;;;1.80;;
68608;SDS011;55581;46.718;7.690;2023-07-02T01:38:32;4.40;;;1.97;;
68608;SDS011;55581;46.718;7.690;2023-07-02T01:40:58;6.50;;;2.15;;
68608;SDS011;55581;46.718;7.690;2023-07-02T01:43:23;5.03;;;1.70;;
68608;SDS011;55581;46.718;7.690;2023-07-02T01:45:51;4.70;;;1.98;;
68608;SDS011;55581;46.718;7.690;2023-07-02T01:48:17;3.97;;;2.23;;
68608;SDS011;55581;46.718;7.690;2023-07-02T01:50:42;4.70;;;1.88;;
68608;SDS011;55581;46.718;7.690;2023-07-02T01:53:08;5.47;;;2.00;;
68608;SDS011;55581;46.718;7.690;2023-07-02T01:55:33;5.70;;;2.27;;
68608;SDS011;55581;46.718;7.690;2023-07-02T01:57:58;4.33;;;2.03;;
68608;SDS011;55581;46.718;7.690;2023-07-02T02:00:26;5.20;;;2.05;;
68608;SDS011;55581;46.718;7.690;2023-07-02T02:02:51;4.30;;;2.07;;
68608;SDS011;55581;46.718;7.690;2023-07-02T02:05:17;5.47;;;1.93;;
68608;SDS011;55581;46.718;7.690;2023-07-02T02:07:42;4.25;;;1.70;;
68608;SDS011;55581;46.718;7.690;2023-07-02T02:10:08;5.87;;;2.17;;
68608;SDS011;55581;46.718;7.690;2023-07-02T02:12:35;6.95;;;2.00;;
68608;SDS011;55581;46.718;7.690;2023-07-02T02:15:00;4.13;;;1.93;;
68608;SDS011;55581;46.718;7.690;2023-07-02T02:17:26;6.33;;;2.33;;
68608;SDS011;55581;46.718;7.690;2023-07-02T02:19:51;5.20;;;2.50;;
68608;SDS011;55581;46.718;7.690;2023-07-02T02:22:16;4.23;;;2.07;;
68608;SDS011;55581;46.718;7.690;2023-07-02T02:24:42;4.18;;;1.73;;
68608;SDS011;55581;46.718;7.690;2023-07-02T02:27:07;4.20;;;1.90;;
68608;SDS011;55581;46.718;7.690;2023-07-02T02:29:34;6.38;;;2.20;;
68608;SDS011;55581;46.718;7.690;2023-07-02T02:31:59;5.27;;;2.43;;
68608;SDS011;55581;46.718;7.690;2023-07-02T02:34:27;5.03;;;2.40;;
68608;SDS011;55581;46.718;7.690;2023-07-02T02:36:56;5.43;;;2.30;;
68608;SDS011;55581;46.718;7.690;2023-07-02T02:39:21;4.57;;;2.22;;
68608;SDS011;55581;46.718;7.690;2023-07-02T02:41:47;6.30;;;2.40;;
68608;SDS011;55581;46.718;7.690;2023-07-02T02:44:13;4.47;;;2.13;;
68608;SDS011;55581;46.718;7.690;2023-07-02T02:46:39;4.95;;;2.20;;
68608;SDS011;55581;46.718;7.690;2023-07-02T02:49:04;5.13;;;2.30;;
68608;SDS011;55581;46.718;7.690;2023-07-02T02:51:30;6.10;;;2.37;;
68608;SDS011;55581;46.718;7.690;2023-07-02T02:53:55;4.80;;;2.40;;
68608;SDS011;55581;46.718;7.690;2023-07-02T02:56:21;4.67;;;2.20;;
68608;SDS011;55581;46.718;7.690;2023-07-02T02:58:46;5.70;;;2.40;;
68608;SDS011;55581;46.718;7.690;2023-07-02T03:01:12;9.73;;;2.97;;
68608;SDS011;55581;46.718;7.690;2023-07-02T03:03:40;6.18;;;2.65;;
68608;SDS011;55581;46.718;7.690;2023-07-02T03:06:09;5.72;;;2.78;;
68608;SDS011;55581;46.718;7.690;2023-07-02T03:08:35;5.67;;;2.37;;
68608;SDS011;55581;46.718;7.690;2023-07-02T03:11:00;5.70;;;2.22;;
68608;SDS011;55581;46.718;7.690;2023-07-02T03:13:28;4.90;;;2.47;;
68608;SDS011;55581;46.718;7.690;2023-07-02T03:15:53;5.22;;;2.22;;
68608;SDS011;55581;46.718;7.690;2023-07-02T03:18:19;6.03;;;2.60;;
68608;SDS011;55581;46.718;7.690;2023-07-02T03:20:44;6.07;;;2.50;;
68608;SDS011;55581;46.718;7.690;2023-07-02T03:23:12;5.85;;;2.60;;
68608;SDS011;55581;46.718;7.690;2023-07-02T03:25:37;5.60;;;2.93;;
68608;SDS011;55581;46.718;7.690;2023-07-02T03:28:05;6.88;;;2.45;;
68608;SDS011;55581;46.718;7.690;2023-07-02T03:30:34;5.93;;;2.83;;
68608;SDS011;55581;46.718;7.690;2023-07-02T03:32:59;6.70;;;3.00;;
68608;SDS011;55581;46.718;7.690;2023-07-02T03:35:24;6.07;;;3.10;;
68608;SDS011;55581;46.718;7.690;2023-07-02T03:37:50;6.83;;;3.37;;
68608;SDS011;55581;46.718;7.690;2023-07-02T03:40:15;7.50;;;2.90;;
68608;SDS011;55581;46.718;7.690;2023-07-02T03:42:43;6.18;;;3.25;;
68608;SDS011;55581;46.718;7.690;2023-07-02T03:45:09;7.13;;;3.03;;
68608;SDS011;55581;46.718;7.690;2023-07-02T03:47:36;6.60;;;2.65;;
68608;SDS011;55581;46.718;7.690;2023-07-02T03:50:02;5.40;;;2.50;;
68608;SDS011;55581;46.718;7.690;2023-07-02T03:52:27;6.50;;;3.10;;
68608;SDS011;55581;46.718;7.690;2023-07-02T03:54:53;5.97;;;3.27;;
68608;SDS011;55581;46.718;7.690;2023-07-02T03:57:18;6.25;;;3.00;;
68608;SDS011;55581;46.718;7.690;2023-07-02T03:59:44;7.50;;;2.43;;
68608;SDS011;55581;46.718;7.690;2023-07-02T04:02:09;6.83;;;3.27;;
68608;SDS011;55581;46.718;7.690;2023-07-02T04:04:34;8.77;;;3.30;;
68608;SDS011;55581;46.718;7.690;2023-07-02T04:07:00;5.72;;;2.80;;
68608;SDS011;55581;46.718;7.690;2023-07-02T04:09:25;4.37;;;2.20;;
68608;SDS011;55581;46.718;7.690;2023-07-02T04:11:50;4.80;;;2.20;;
68608;SDS011;55581;46.718;7.690;2023-07-02T04:14:16;5.10;;;2.47;;
68608;SDS011;55581;46.718;7.690;2023-07-02T04:16:43;5.23;;;2.80;;
68608;SDS011;55581;46.718;7.690;2023-07-02T04:19:12;6.03;;;2.65;;
68608;SDS011;55581;46.718;7.690;2023-07-02T04:21:37;5.07;;;2.75;;
68608;SDS011;55581;46.718;7.690;2023-07-02T04:24:03;7.23;;;2.77;;
68608;SDS011;55581;46.718;7.690;2023-07-02T04:26:29;8.63;;;3.20;;
68608;SDS011;55581;46.718;7.690;2023-07-02T04:28:56;5.50;;;2.90;;
68608;SDS011;55581;46.718;7.690;2023-07-02T04:31:21;5.70;;;2.87;;
68608;SDS011;55581;46.718;7.690;2023-07-02T04:33:46;7.00;;;2.80;;
68608;SDS011;55581;46.718;7.690;2023-07-02T04:36:13;5.50;;;2.67;;
68608;SDS011;55581;46.718;7.690;2023-07-02T04:38:39;6.93;;;3.03;;
68608;SDS011;55581;46.718;7.690;2023-07-02T04:41:05;6.40;;;3.40;;
68608;SDS011;55581;46.718;7.690;2023-07-02T04:43:31;7.13;;;3.43;;
68608;SDS011;55581;46.718;7.690;2023-07-02T04:45:58;7.20;;;3.03;;
68608;SDS011;55581;46.718;7.690;2023-07-02T04:48:23;6.28;;;2.80;;
68608;SDS011;55581;46.718;7.690;2023-07-02T04:50:49;6.07;;;2.90;;
68608;SDS011;55581;46.718;7.690;2023-07-02T04:53:14;6.00;;;3.08;;
68608;SDS011;55581;46.718;7.690;2023-07-02T04:55:40;6.97;;;2.93;;
68608;SDS011;55581;46.718;7.690;2023-07-02T04:58:06;5.93;;;2.95;;
68608;SDS011;55581;46.718;7.690;2023-07-02T05:00:31;7.13;;;3.40;;
68608;SDS011;55581;46.718;7.690;2023-07-02T05:02:59;8.40;;;4.05;;
68608;SDS011;55581;46.718;7.690;2023-07-02T05:05:25;7.53;;;3.90;;
68608;SDS011;55581;46.718;7.690;2023-07-02T05:07:50;7.63;;;3.63;;
68608;SDS011;55581;46.718;7.690;2023-07-02T05:10:15;7.00;;;3.03;;
68608;SDS011;55581;46.718;7.690;2023-07-02T05:12:41;5.50;;;2.78;;
68608;SDS011;55581;46.718;7.690;2023-07-02T05:15:07;6.53;;;3.40;;
68608;SDS011;55581;46.718;7.690;2023-07-02T05:17:32;7.68;;;3.95;;
68608;SDS011;55581;46.718;7.690;2023-07-02T05:20:00;8.35;;;4.60;;
68608;SDS011;55581;46.718;7.690;2023-07-02T05:22:31;7.43;;;4.10;;
68608;SDS011;55581;46.718;7.690;2023-07-02T05:24:56;8.73;;;4.93;;
68608;SDS011;55581;46.718;7.690;2023-07-02T05:27:22;8.20;;;4.53;;
68608;SDS011;55581;46.718;7.690;2023-07-02T05:29:47;10.90;;;4.30;;
68608;SDS011;55581;46.718;7.690;2023-07-02T05:32:13;7.70;;;3.93;;
68608;SDS011;55581;46.718;7.690;2023-07-02T05:34:38;9.18;;;4.15;;
68608;SDS011;55581;46.718;7.690;2023-07-02T05:37:05;7.93;;;4.27;;
68608;SDS011;55581;46.718;7.690;2023-07-02T05:39:30;9.60;;;4.68;;
68608;SDS011;55581;46.718;7.690;2023-07-02T05:41:56;8.70;;;4.03;;
68608;SDS011;55581;46.718;7.690;2023-07-02T05:44:22;8.57;;;3.85;;
68608;SDS011;55581;46.718;7.690;2023-07-02T05:46:47;6.97;;;3.87;;
68608;SDS011;55581;46.718;7.690;2023-07-02T05:49:12;12.73;;;5.87;;
68608;SDS011;55581;46.718;7.690;2023-07-02T05:51:38;16.20;;;6.65;;
68608;SDS011;55581;46.718;7.690;2023-07-02T05:54:03;9.23;;;4.00;;
68608;SDS011;55581;46.718;7.690;2023-07-02T05:56:29;15.77;;;5.60;;
68608;SDS011;55581;46.718;7.690;2023-07-02T05:58:57;8.10;;;4.18;;
68608;SDS011;55581;46.718;7.690;2023-07-02T06:01:22;9.03;;;4.30;;
68608;SDS011;55581;46.718;7.690;2023-07-02T06:03:53;9.18;;;4.03;;
68608;SDS011;55581;46.718;7.690;2023-07-02T06:06:21;9.47;;;3.53;;
68608;SDS011;55581;46.718;7.690;2023-07-02T06:08:52;9.45;;;4.25;;
68608;SDS011;55581;46.718;7.690;2023-07-02T06:11:18;7.30;;;4.00;;
68608;SDS011;55581;46.718;7.690;2023-07-02T06:13:46;7.50;;;3.88;;
68608;SDS011;55581;46.718;7.690;2023-07-02T06:16:14;7.37;;;3.80;;
68608;SDS011;55581;46.718;7.690;2023-07-02T06:18:42;9.25;;;4.40;;
68608;SDS011;55581;46.718;7.690;2023-07-02T06:21:09;7.13;;;3.95;;
68608;SDS011;55581;46.718;7.690;2023-07-02T06:23:41;8.87;;;4.27;;
68608;SDS011;55581;46.718;7.690;2023-07-02T06:26:07;8.40;;;4.45;;
68608;SDS011;55581;46.718;7.690;2023-07-02T06:28:34;8.38;;;4.20;;
68608;SDS011;55581;46.718;7.690;2023-07-02T06:31:00;7.80;;;3.93;;
68608;SDS011;55581;46.718;7.690;2023-07-02T06:33:27;7.90;;;4.45;;
68608;SDS011;55581;46.718;7.690;2023-07-02T06:35:53;7.87;;;3.73;;
68608;SDS011;55581;46.718;7.690;2023-07-02T06:38:18;8.70;;;4.40;;
68608;SDS011;55581;46.718;7.690;2023-07-02T06:40:44;7.37;;;4.13;;
68608;SDS011;55581;46.718;7.690;2023-07-02T06:43:09;8.83;;;4.37;;
68608;SDS011;55581;46.718;7.690;2023-07-02T06:45:37;8.73;;;4.45;;
68608;SDS011;55581;46.718;7.690;2023-07-02T06:48:02;8.17;;;4.03;;
68608;SDS011;55581;46.718;7.690;2023-07-02T06:50:27;9.40;;;4.50;;
68608;SDS011;55581;46.718;7.690;2023-07-02T06:52:53;8.93;;;4.72;;
68608;SDS011;55581;46.718;7.690;2023-07-02T06:55:19;7.53;;;3.97;;
68608;SDS011;55581;46.718;7.690;2023-07-02T06:57:45;7.75;;;4.40;;
68608;SDS011;55581;46.718;7.690;2023-07-02T07:00:12;9.77;;;4.32;;
68608;SDS011;55581;46.718;7.690;2023-07-02T07:02:40;9.50;;;4.30;;
68608;SDS011;55581;46.718;7.690;2023-07-02T07:05:07;11.48;;;4.68;;
68608;SDS011;55581;46.718;7.690;2023-07-02T07:07:34;10.02;;;4.60;;
68608;SDS011;55581;46.718;7.690;2023-07-02T07:10:01;9.25;;;4.53;;
68608;SDS011;55581;46.718;7.690;2023-07-02T07:12:27;9.70;;;4.90;;
68608;SDS011;55581;46.718;7.690;2023-07-02T07:14:52;8.27;;;4.45;;
68608;SDS011;55581;46.718;7.690;2023-07-02T07:17:18;9.97;;;4.93;;
68608;SDS011;55581;46.718;7.690;2023-07-02T07:19:43;10.23;;;4.95;;
68608;SDS011;55581;46.718;7.690;2023-07-02T07:22:09;10.60;;;4.27;;
68608;SDS011;55581;46.718;7.690;2023-07-02T07:24:34;7.93;;;4.10;;
68608;SDS011;55581;46.718;7.690;2023-07-02T07:26:59;8.37;;;4.83;;
68608;SDS011;55581;46.718;7.690;2023-07-02T07:29:26;9.38;;;4.88;;
68608;SDS011;55581;46.718;7.690;2023-07-02T07:31:51;9.80;;;4.90;;
68608;SDS011;55581;46.718;7.690;2023-07-02T07:34:17;10.43;;;4.90;;
68608;SDS011;55581;46.718;7.690;2023-07-02T07:36:42;8.20;;;4.93;;
68608;SDS011;55581;46.718;7.690;2023-07-02T07:39:08;8.40;;;4.93;;
68608;SDS011;55581;46.718;7.690;2023-07-02T07:41:33;7.60;;;4.40;;
68608;SDS011;55581;46.718;7.690;2023-07-02T07:43:59;8.63;;;4.73;;
68608;SDS011;55581;46.718;7.690;2023-07-02T07:46:26;8.40;;;4.68;;
68608;SDS011;55581;46.718;7.690;2023-07-02T07:48:51;9.93;;;5.18;;
68608;SDS011;55581;46.718;7.690;2023-07-02T07:51:17;12.73;;;4.93;;
68608;SDS011;55581;46.718;7.690;2023-07-02T07:53:42;14.10;;;5.63;;
68608;SDS011;55581;46.718;7.690;2023-07-02T07:56:08;9.07;;;5.20;;
68608;SDS011;55581;46.718;7.690;2023-07-02T07:58:38;9.00;;;5.03;;
68608;SDS011;55581;46.718;7.690;2023-07-02T08:01:03;9.00;;;5.13;;
68608;SDS011;55581;46.718;7.690;2023-07-02T08:03:30;10.77;;;5.70;;
68608;SDS011;55581;46.718;7.690;2023-07-02T08:05:55;10.13;;;5.27;;
68608;SDS011;55581;46.718;7.690;2023-07-02T08:08:22;12.30;;;6.03;;
68608;SDS011;55581;46.718;7.690;2023-07-02T08:10:47;8.18;;;4.93;;
68608;SDS011;55581;46.718;7.690;2023-07-02T08:13:14;10.85;;;5.68;;
68608;SDS011;55581;46.718;7.690;2023-07-02T08:15:41;9.80;;;5.35;;
68608;SDS011;55581;46.718;7.690;2023-07-02T08:18:07;9.47;;;4.87;;
68608;SDS011;55581;46.718;7.690;2023-07-02T08:20:34;9.23;;;4.85;;
68608;SDS011;55581;46.718;7.690;2023-07-02T08:23:02;8.23;;;4.88;;
68608;SDS011;55581;46.718;7.690;2023-07-02T08:25:27;9.60;;;4.57;;
68608;SDS011;55581;46.718;7.690;2023-07-02T08:27:53;9.60;;;4.95;;
68608;SDS011;55581;46.718;7.690;2023-07-02T08:30:21;10.77;;;5.57;;
68608;SDS011;55581;46.718;7.690;2023-07-02T08:32:47;9.88;;;4.45;;
68608;SDS011;55581;46.718;7.690;2023-07-02T08:35:14;10.37;;;5.50;;
68608;SDS011;55581;46.718;7.690;2023-07-02T08:37:39;8.90;;;4.55;;
68608;SDS011;55581;46.718;7.690;2023-07-02T08:40:15;9.05;;;4.78;;
68608;SDS011;55581;46.718;7.690;2023-07-02T08:42:44;10.27;;;5.50;;
68608;SDS011;55581;46.718;7.690;2023-07-02T08:45:13;10.27;;;5.27;;
68608;SDS011;55581;46.718;7.690;2023-07-02T08:47:40;11.40;;;6.18;;
68608;SDS011;55581;46.718;7.690;2023-07-02T08:50:05;6.43;;;4.10;;
68608;SDS011;55581;46.718;7.690;2023-07-02T08:52:32;7.03;;;3.47;;
68608;SDS011;55581;46.718;7.690;2023-07-02T08:55:05;6.63;;;3.55;;
68608;SDS011;55581;46.718;7.690;2023-07-02T08:57:31;8.82;;;3.90;;
68608;SDS011;55581;46.718;7.690;2023-07-02T08:59:58;7.18;;;4.05;;
68608;SDS011;55581;46.718;7.690;2023-07-02T09:02:33;6.90;;;3.70;;
68608;SDS011;55581;46.718;7.690;2023-07-02T09:04:59;6.93;;;3.80;;
68608;SDS011;55581;46.718;7.690;2023-07-02T09:07:25;6.25;;;3.70;;
68608;SDS011;55581;46.718;7.690;2023-07-02T09:09:51;8.00;;;4.20;;
68608;SDS011;55581;46.718;7.690;2023-07-02T09:15:00;7.35;;;4.60;;
68608;SDS011;55581;46.718;7.690;2023-07-02T09:17:27;11.05;;;5.00;;
68608;SDS011;55581;46.718;7.690;2023-07-02T09:19:59;9.52;;;4.95;;
68608;SDS011;55581;46.718;7.690;2023-07-02T09:22:32;7.38;;;4.47;;
68608;SDS011;55581;46.718;7.690;2023-07-02T09:25:01;10.13;;;4.63;;
68608;SDS011;55581;46.718;7.690;2023-07-02T09:27:34;7.57;;;4.60;;
68608;SDS011;55581;46.718;7.690;2023-07-02T09:32:43;8.27;;;4.43;;
68608;SDS011;55581;46.718;7.690;2023-07-02T09:35:09;9.20;;;5.30;;
68608;SDS011;55581;46.718;7.690;2023-07-02T09:37:38;9.00;;;5.10;;
68608;SDS011;55581;46.718;7.690;2023-07-02T09:40:04;8.23;;;5.18;;
68608;SDS011;55581;46.718;7.690;2023-07-02T09:42:32;8.63;;;5.05;;
68608;SDS011;55581;46.718;7.690;2023-07-02T09:44:59;9.95;;;5.32;;
68608;SDS011;55581;46.718;7.690;2023-07-02T09:47:27;8.35;;;5.53;;
68608;SDS011;55581;46.718;7.690;2023-07-02T09:49:59;12.10;;;5.80;;
68608;SDS011;55581;46.718;7.690;2023-07-02T09:52:29;8.13;;;5.05;;
68608;SDS011;55581;46.718;7.690;2023-07-02T09:54:55;10.15;;;5.30;;
68608;SDS011;55581;46.718;7.690;2023-07-02T09:57:21;8.50;;;5.40;;
68608;SDS011;55581;46.718;7.690;2023-07-02T09:59:48;7.80;;;4.53;;
68608;SDS011;55581;46.718;7.690;2023-07-02T10:02:15;9.45;;;5.75;;
68608;SDS011;55581;46.718;7.690;2023-07-02T10:07:09;9.43;;;5.32;;
68608;SDS011;55581;46.718;7.690;2023-07-02T10:09:44;9.80;;;5.45;;
68608;SDS011;55581;46.718;7.690;2023-07-02T10:12:15;7.80;;;4.60;;
68608;SDS011;55581;46.718;7.690;2023-07-02T10:14:48;7.95;;;4.68;;
68608;SDS011;55581;46.718;7.690;2023-07-02T10:17:27;7.97;;;4.90;;
68608;SDS011;55581;46.718;7.690;2023-07-02T10:19:55;8.05;;;4.78;;
68608;SDS011;55581;46.718;7.690;2023-07-02T10:22:22;8.00;;;4.72;;
68608;SDS011;55581;46.718;7.690;2023-07-02T10:24:52;7.77;;;4.13;;
68608;SDS011;55581;46.718;7.690;2023-07-02T10:27:32;10.00;;;5.03;;
68608;SDS011;55581;46.718;7.690;2023-07-02T10:30:04;8.10;;;4.65;;
68608;SDS011;55581;46.718;7.690;2023-07-02T10:32:31;8.85;;;4.60;;
68608;SDS011;55581;46.718;7.690;2023-07-02T10:34:59;7.85;;;4.60;;
68608;SDS011;55581;46.718;7.690;2023-07-02T10:37:27;8.60;;;4.60;;
68608;SDS011;55581;46.718;7.690;2023-07-02T10:40:01;7.85;;;4.30;;
68608;SDS011;55581;46.718;7.690;2023-07-02T10:42:48;7.70;;;4.47;;
68608;SDS011;55581;46.718;7.690;2023-07-02T10:45:15;10.82;;;4.30;;
68608;SDS011;55581;46.718;7.690;2023-07-02T10:47:41;8.17;;;4.53;;
68608;SDS011;55581;46.718;7.690;2023-07-02T10:50:14;7.77;;;4.70;;
68608;SDS011;55581;46.718;7.690;2023-07-02T10:52:43;7.43;;;4.38;;
68608;SDS011;55581;46.718;7.690;2023-07-02T10:55:08;7.78;;;4.50;;
68608;SDS011;55581;46.718;7.690;2023-07-02T10:57:34;7.63;;;4.47;;
68608;SDS011;55581;46.718;7.690;2023-07-02T11:00:08;11.20;;;4.38;;
68608;SDS011;55581;46.718;7.690;2023-07-02T11:02:37;7.55;;;4.50;;
68608;SDS011;55581;46.718;7.690;2023-07-02T11:05:07;7.03;;;4.60;;
68608;SDS011;55581;46.718;7.690;2023-07-02T11:07:43;9.50;;;4.78;;
68608;SDS011;55581;46.718;7.690;2023-07-02T11:10:09;8.35;;;4.60;;
68608;SDS011;55581;46.718;7.690;2023-07-02T11:12:38;7.80;;;4.72;;
68608;SDS011;55581;46.718;7.690;2023-07-02T11:15:07;11.20;;;5.23;;
68608;SDS011;55581;46.718;7.690;2023-07-02T11:17:37;9.48;;;5.10;;
68608;SDS011;55581;46.718;7.690;2023-07-02T11:20:02;8.20;;;5.10;;
68608;SDS011;55581;46.718;7.690;2023-07-02T11:22:35;7.70;;;4.67;;
68608;SDS011;55581;46.718;7.690;2023-07-02T11:25:08;8.02;;;4.85;;
68608;SDS011;55581;46.718;7.690;2023-07-02T11:27:44;8.48;;;4.80;;
68608;SDS011;55581;46.718;7.690;2023-07-02T11:30:09;7.40;;;4.53;;
68608;SDS011;55581;46.718;7.690;2023-07-02T11:32:52;10.27;;;5.07;;
68608;SDS011;55581;46.718;7.690;2023-07-02T11:35:19;9.48;;;4.85;;
68608;SDS011;55581;46.718;7.690;2023-07-02T11:37:45;9.15;;;5.00;;
68608;SDS011;55581;46.718;7.690;2023-07-02T11:40:13;9.60;;;5.03;;
68608;SDS011;55581;46.718;7.690;2023-07-02T11:42:39;8.57;;;4.97;;
68608;SDS011;55581;46.718;7.690;2023-07-02T11:45:05;9.18;;;5.70;;
68608;SDS011;55581;46.718;7.690;2023-07-02T11:47:31;8.95;;;5.03;;
68608;SDS011;55581;46.718;7.690;2023-07-02T11:49:57;8.60;;;4.73;;
68608;SDS011;55581;46.718;7.690;2023-07-02T11:52:24;7.28;;;4.85;;
68608;SDS011;55581;46.718;7.690;2023-07-02T11:54:50;8.88;;;5.35;;
68608;SDS011;55581;46.718;7.690;2023-07-02T11:57:15;8.57;;;4.97;;
68608;SDS011;55581;46.718;7.690;2023-07-02T11:59:42;7.82;;;4.90;;
68608;SDS011;55581;46.718;7.690;2023-07-02T12:02:07;7.53;;;5.30;;
68608;SDS011;55581;46.718;7.690;2023-07-02T12:04:33;8.23;;;4.80;;
68608;SDS011;55581;46.718;7.690;2023-07-02T12:07:01;7.67;;;4.97;;
68608;SDS011;55581;46.718;7.690;2023-07-02T12:09:28;8.48;;;4.88;;
68608;SDS011;55581;46.718;7.690;2023-07-02T12:11:54;7.60;;;4.53;;
68608;SDS011;55581;46.718;7.690;2023-07-02T12:14:19;6.90;;;4.30;;
68608;SDS011;55581;46.718;7.690;2023-07-02T12:16:45;7.43;;;4.50;;
68608;SDS011;55581;46.718;7.690;2023-07-02T12:19:10;7.00;;;3.87;;
68608;SDS011;55581;46.718;7.690;2023-07-02T12:21:35;6.65;;;4.35;;
68608;SDS011;55581;46.718;7.690;2023-07-02T12:24:01;7.13;;;4.20;;
68608;SDS011;55581;46.718;7.690;2023-07-02T12:26:34;6.85;;;3.83;;
68608;SDS011;55581;46.718;7.690;2023-07-02T12:29:00;6.77;;;4.03;;
68608;SDS011;55581;46.718;7.690;2023-07-02T12:31:26;6.95;;;4.30;;
68608;SDS011;55581;46.718;7.690;2023-07-02T12:33:51;8.97;;;4.80;;
68608;SDS011;55581;46.718;7.690;2023-07-02T12:36:16;6.73;;;4.23;;
68608;SDS011;55581;46.718;7.690;2023-07-02T12:38:42;8.03;;;4.40;;
68608;SDS011;55581;46.718;7.690;2023-07-02T12:41:07;7.30;;;4.13;;
68608;SDS011;55581;46.718;7.690;2023-07-02T12:43:33;6.93;;;4.20;;
68608;SDS011;55581;46.718;7.690;2023-07-02T12:45:58;8.70;;;4.30;;
68608;SDS011;55581;46.718;7.690;2023-07-02T12:48:24;11.47;;;4.77;;
68608;SDS011;55581;46.718;7.690;2023-07-02T12:50:58;7.00;;;4.10;;
68608;SDS011;55581;46.718;7.690;2023-07-02T12:53:25;6.93;;;4.32;;
68608;SDS011;55581;46.718;7.690;2023-07-02T12:55:51;6.80;;;4.20;;
68608;SDS011;55581;46.718;7.690;2023-07-02T12:58:19;6.75;;;4.20;;
68608;SDS011;55581;46.718;7.690;2023-07-02T13:00:46;6.27;;;4.20;;
68608;SDS011;55581;46.718;7.690;2023-07-02T13:03:12;7.82;;;3.65;;
68608;SDS011;55581;46.718;7.690;2023-07-02T13:05:39;6.80;;;3.92;;
68608;SDS011;55581;46.718;7.690;2023-07-02T13:08:05;5.95;;;2.83;;
68608;SDS011;55581;46.718;7.690;2023-07-02T13:10:31;6.35;;;3.50;;
68608;SDS011;55581;46.718;7.690;2023-07-02T13:12:57;6.53;;;3.63;;
68608;SDS011;55581;46.718;7.690;2023-07-02T13:15:23;6.10;;;3.55;;
68608;SDS011;55581;46.718;7.690;2023-07-02T13:17:48;6.70;;;3.63;;
68608;SDS011;55581;46.718;7.690;2023-07-02T13:20:13;7.00;;;3.73;;
68608;SDS011;55581;46.718;7.690;2023-07-02T13:22:39;5.25;;;2.80;;
68608;SDS011;55581;46.718;7.690;2023-07-02T13:25:08;7.60;;;3.97;;
68608;SDS011;55581;46.718;7.690;2023-07-02T13:27:36;6.63;;;3.30;;
68608;SDS011;55581;46.718;7.690;2023-07-02T13:30:02;5.53;;;3.08;;
68608;SDS011;55581;46.718;7.690;2023-07-02T13:32:28;5.63;;;3.47;;
68608;SDS011;55581;46.718;7.690;2023-07-02T13:34:56;5.53;;;3.40;;
68608;SDS011;55581;46.718;7.690;2023-07-02T13:37:24;5.97;;;3.50;;
68608;SDS011;55581;46.718;7.690;2023-07-02T13:39:49;6.43;;;3.45;;
68608;SDS011;55581;46.718;7.690;2023-07-02T13:42:15;5.60;;;3.07;;
68608;SDS011;55581;46.718;7.690;2023-07-02T13:44:41;5.45;;;2.97;;
68608;SDS011;55581;46.718;7.690;2023-07-02T13:47:07;5.95;;;2.85;;
68608;SDS011;55581;46.718;7.690;2023-07-02T13:49:36;5.80;;;3.25;;
68608;SDS011;55581;46.718;7.690;2023-07-02T13:52:01;5.70;;;3.37;;
68608;SDS011;55581;46.718;7.690;2023-07-02T13:54:27;5.83;;;3.20;;
68608;SDS011;55581;46.718;7.690;2023-07-02T13:56:53;5.87;;;3.10;;
68608;SDS011;55581;46.718;7.690;2023-07-02T13:59:21;4.95;;;2.67;;
68608;SDS011;55581;46.718;7.690;2023-07-02T14:01:46;4.87;;;2.90;;
68608;SDS011;55581;46.718;7.690;2023-07-02T14:04:13;5.83;;;2.87;;
68608;SDS011;55581;46.718;7.690;2023-07-02T14:06:39;6.05;;;3.28;;
68608;SDS011;55581;46.718;7.690;2023-07-02T14:09:05;5.40;;;2.95;;
68608;SDS011;55581;46.718;7.690;2023-07-02T14:11:31;5.53;;;2.87;;
68608;SDS011;55581;46.718;7.690;2023-07-02T14:13:59;4.68;;;2.63;;
68608;SDS011;55581;46.718;7.690;2023-07-02T14:16:25;5.73;;;3.13;;
68608;SDS011;55581;46.718;7.690;2023-07-02T14:18:53;5.00;;;2.70;;
68608;SDS011;55581;46.718;7.690;2023-07-02T14:21:21;8.83;;;3.43;;
68608;SDS011;55581;46.718;7.690;2023-07-02T14:23:46;5.32;;;3.10;;
68608;SDS011;55581;46.718;7.690;2023-07-02T14:26:11;4.57;;;2.67;;
68608;SDS011;55581;46.718;7.690;2023-07-02T14:28:37;5.27;;;2.83;;
68608;SDS011;55581;46.718;7.690;2023-07-02T14:31:03;5.80;;;3.58;;
68608;SDS011;55581;46.718;7.690;2023-07-02T14:33:34;7.63;;;3.30;;
68608;SDS011;55581;46.718;7.690;2023-07-02T14:36:01;6.63;;;3.45;;
68608;SDS011;55581;46.718;7.690;2023-07-02T14:38:27;5.37;;;3.03;;
68608;SDS011;55581;46.718;7.690;2023-07-02T14:40:53;5.95;;;3.33;;
68608;SDS011;55581;46.718;7.690;2023-07-02T14:43:20;5.70;;;2.90;;
68608;SDS011;55581;46.718;7.690;2023-07-02T14:45:47;6.43;;;3.13;;
68608;SDS011;55581;46.718;7.690;2023-07-02T14:48:15;5.35;;;2.80;;
68608;SDS011;55581;46.718;7.690;2023-07-02T14:50:45;6.32;;;3.05;;
68608;SDS011;55581;46.718;7.690;2023-07-02T14:53:14;6.57;;;3.50;;